Time;durP1;ratioP1;P1;durP2;ratioP2;P2;SDS_P1;SDS_P2;PMS_P1;PMS_P2;Temp;Humidity;BMP_temperature;BMP_pressure;BME280_temperature;BME280_humidity;BME280_pressure;Samples;Min_cycle;Max_cycle;Signal;HPM_P1;HPM_P2
2023/08/03 00:00:43;;;;;;;3.15;1.48;;;;;;;16.80;100.00;98885.41;5035787;28;20032;-75
2023/08/03 00:03:08;;;;;;;2.10;0.93;;;;;;;16.81;100.00;98900.31;5035747;28;20100;-75
2023/08/03 00:05:33;;;;;;;7.13;1.50;;;;;;;16.81;100.00;98903.78;5035779;28;20115;-75
2023/08/03 00:07:59;;;;;;;4.40;1.38;;;;;;;16.81;100.00;98906.41;5035456;28;20083;-75
2023/08/03 00:10:24;;;;;;;2.35;0.98;;;;;;;16.80;100.00;98902.09;5035536;28;20033;-75
2023/08/03 00:12:50;;;;;;;3.75;0.90;;;;;;;16.82;100.00;98907.25;5035479;28;20224;-75
2023/08/03 00:15:17;;;;;;;5.53;1.48;;;;;;;16.80;100.00;98904.75;5035362;28;20112;-75
2023/08/03 00:17:44;;;;;;;5.18;1.25;;;;;;;16.81;100.00;98916.16;5017453;28;20360;-75
2023/08/03 00:20:10;;;;;;;3.08;1.20;;;;;;;16.80;100.00;98917.97;5035508;28;20075;-76
2023/08/03 00:22:36;;;;;;;4.93;1.00;;;;;;;16.81;100.00;98932.03;5035069;28;20089;-75
2023/08/03 00:25:03;;;;;;;4.85;1.10;;;;;;;16.81;100.00;98929.38;5035683;28;20330;-75
2023/08/03 00:27:29;;;;;;;4.50;1.50;;;;;;;16.80;100.00;98936.47;5035198;28;20275;-75
2023/08/03 00:29:55;;;;;;;3.25;1.20;;;;;;;16.81;100.00;98951.34;5035502;28;20360;-75
2023/08/03 00:32:21;;;;;;;2.83;1.30;;;;;;;16.81;100.00;98947.88;5017367;28;20029;-76
2023/08/03 00:34:46;;;;;;;7.88;1.85;;;;;;;16.81;100.00;98942.59;5035559;28;20325;-75
2023/08/03 00:37:12;;;;;;;2.75;1.30;;;;;;;16.80;100.00;98954.13;5035351;28;20093;-76
2023/08/03 00:39:38;;;;;;;4.22;1.27;;;;;;;16.80;100.00;98956.78;5034526;28;20037;-76
2023/08/03 00:42:07;;;;;;;6.97;2.20;;;;;;;16.80;100.00;98952.31;5035366;28;20037;-76
2023/08/03 00:44:33;;;;;;;3.30;1.50;;;;;;;16.79;100.00;98950.69;5034909;28;20044;-76
2023/08/03 00:46:59;;;;;;;2.97;1.60;;;;;;;16.81;100.00;98958.47;5034301;28;20250;-76
2023/08/03 00:49:27;;;;;;;4.70;1.30;;;;;;;16.80;100.00;98960.25;5035027;28;20116;-75
2023/08/03 00:51:55;;;;;;;2.70;1.35;;;;;;;16.81;100.00;98963.75;5035069;28;20096;-75
2023/08/03 00:54:20;;;;;;;4.97;1.30;;;;;;;16.81;100.00;98967.22;5034815;28;20632;-75
2023/08/03 00:56:45;;;;;;;3.97;1.42;;;;;;;16.81;100.00;98964.56;5034867;28;20083;-76
2023/08/03 00:59:11;;;;;;;4.53;1.65;;;;;;;16.82;100.00;98975.97;5035154;28;20060;-76
2023/08/03 01:05:08;;;;;;;5.35;1.85;;;;;;;16.81;100.00;98974.31;4812717;28;20041;-77
2023/08/03 01:07:34;;;;;;;3.10;1.50;;;;;;;16.81;100.00;98972.50;5036977;28;20029;-77
2023/08/03 01:10:00;;;;;;;3.75;1.95;;;;;;;16.81;100.00;98979.63;5035463;28;20044;-77
2023/08/03 01:12:26;;;;;;;7.93;1.70;;;;;;;16.80;100.00;98977.94;5035127;28;20030;-77
2023/08/03 01:14:51;;;;;;;7.03;2.40;;;;;;;16.80;100.00;98980.56;5035271;28;20044;-77
2023/08/03 01:17:17;;;;;;;3.50;1.83;;;;;;;16.79;100.00;98982.41;5035406;28;20475;-77
2023/08/03 01:19:42;;;;;;;4.07;1.45;;;;;;;16.80;100.00;98973.47;5035451;28;20392;-77
2023/08/03 01:22:12;;;;;;;4.78;1.45;;;;;;;16.81;100.00;98979.63;5017568;28;20220;-77
2023/08/03 01:24:37;;;;;;;4.55;1.83;;;;;;;16.80;100.00;98980.56;5035218;28;20048;-77
2023/08/03 01:27:03;;;;;;;3.03;1.48;;;;;;;16.80;100.00;98996.44;5017439;28;20294;-77
2023/08/03 01:29:28;;;;;;;3.45;1.38;;;;;;;16.79;100.00;98994.75;5035203;28;20041;-77
2023/08/03 01:31:56;;;;;;;6.50;1.52;;;;;;;16.80;100.00;98991.97;5035648;28;20045;-77
2023/08/03 01:34:23;;;;;;;5.38;1.38;;;;;;;16.80;100.00;99004.38;5034740;28;20021;-77
2023/08/03 01:36:49;;;;;;;9.27;2.20;;;;;;;16.79;100.00;99000.91;5035181;28;20045;-77
2023/08/03 01:39:15;;;;;;;4.22;1.48;;;;;;;16.79;100.00;99000.03;5035290;28;20075;-77
2023/08/03 01:41:42;;;;;;;8.82;1.95;;;;;;;16.79;100.00;99000.03;5034681;28;20052;-77
2023/08/03 01:44:28;;;;;;;2.33;1.35;;;;;;;16.78;100.00;99001.88;5035284;28;20215;-77
2023/08/03 01:46:54;;;;;;;5.00;1.90;;;;;;;16.77;100.00;99002.88;5035548;28;20348;-77
2023/08/03 01:49:21;;;;;;;4.60;1.75;;;;;;;16.77;100.00;99005.50;5034975;28;20044;-77
2023/08/03 01:51:47;;;;;;;6.93;2.92;;;;;;;16.76;100.00;98995.91;5035062;28;20100;-77
2023/08/03 01:54:13;;;;;;;3.25;1.70;;;;;;;16.75;100.00;99010.06;5034982;28;20351;-77
2023/08/03 01:56:38;;;;;;;6.43;1.98;;;;;;;16.74;100.00;99008.44;5016550;28;20229;-77
2023/08/03 01:59:05;;;;;;;3.10;1.45;;;;;;;16.74;100.00;99011.06;5037374;28;20370;-77
2023/08/03 02:01:30;;;;;;;2.72;1.60;;;;;;;16.73;100.00;99004.13;5038234;28;20029;-77
2023/08/03 02:03:55;;;;;;;5.55;1.85;;;;;;;16.73;100.00;99001.47;5038945;28;20419;-74
2023/08/03 02:06:21;;;;;;;3.40;1.70;;;;;;;16.72;100.00;99006.91;5037984;28;20064;-74
2023/08/03 02:08:46;;;;;;;3.67;1.67;;;;;;;16.72;100.00;99007.75;5037634;28;20076;-73
2023/08/03 02:11:12;;;;;;;2.80;1.20;;;;;;;16.70;100.00;99007.91;5037903;28;20096;-74
2023/08/03 02:13:37;;;;;;;3.72;1.60;;;;;;;16.69;100.00;99000.94;5037581;28;20340;-74
2023/08/03 02:16:10;;;;;;;3.67;1.30;;;;;;;16.69;100.00;99000.94;5038286;28;20096;-74
2023/08/03 02:18:39;;;;;;;2.55;1.27;;;;;;;16.69;100.00;99008.84;5037863;28;20264;-74
2023/08/03 02:21:05;;;;;;;1.20;1.10;;;;;;;16.69;100.00;99002.75;5037977;28;20029;-74
2023/08/03 02:23:31;;;;;;;6.20;1.48;;;;;;;16.69;100.00;99000.94;5037209;28;20201;-74
2023/08/03 02:25:56;;;;;;;1.40;0.90;;;;;;;16.68;100.00;99004.56;5037912;28;20069;-74
2023/08/03 02:28:22;;;;;;;3.30;1.10;;;;;;;16.68;100.00;98999.28;5037688;28;20041;-74
2023/08/03 02:30:47;;;;;;;1.70;1.05;;;;;;;16.68;100.00;99003.72;5037717;28;20040;-73
2023/08/03 02:33:13;;;;;;;7.85;1.63;;;;;;;16.68;100.00;98995.78;5038154;28;20033;-73
2023/08/03 02:35:39;;;;;;;4.18;1.13;;;;;;;16.67;100.00;99002.06;5028482;28;20084;-73
2023/08/03 02:38:08;;;;;;;1.83;1.02;;;;;;;16.66;100.00;99001.25;5017881;28;20037;-74
2023/08/03 02:40:34;;;;;;;2.13;0.95;;;;;;;16.67;100.00;99010.81;5027887;28;20041;-73
2023/08/03 02:42:59;;;;;;;4.43;1.10;;;;;;;16.67;100.00;99025.84;5037687;28;20360;-74
2023/08/03 02:45:24;;;;;;;2.63;1.27;;;;;;;16.67;100.00;99031.13;5037052;28;20221;-74
2023/08/03 02:47:50;;;;;;;6.88;1.27;;;;;;;16.66;100.00;99038.25;5037614;28;20053;-73
2023/08/03 02:50:15;;;;;;;1.77;1.08;;;;;;;16.66;100.00;99040.03;5037801;28;20370;-77
2023/08/03 02:52:41;;;;;;;2.35;1.08;;;;;;;16.65;100.00;99039.22;5036603;28;20038;-77
2023/08/03 02:55:06;;;;;;;3.00;1.20;;;;;;;16.66;100.00;99032.09;5037475;28;20351;-77
2023/08/03 02:57:32;;;;;;;2.85;1.10;;;;;;;16.66;100.00;99042.69;5019320;28;20427;-77
2023/08/03 02:59:57;;;;;;;3.28;1.55;;;;;;;16.65;100.00;99043.66;5037068;28;20048;-77
2023/08/03 03:02:22;;;;;;;2.13;1.10;;;;;;;16.67;100.00;99052.28;5037366;28;20052;-77
2023/08/03 03:04:49;;;;;;;1.83;1.13;;;;;;;16.65;100.00;99055.06;5037305;28;20029;-77
2023/08/03 03:07:15;;;;;;;1.73;1.15;;;;;;;16.66;100.00;99069.09;5037005;28;20335;-76
2023/08/03 03:09:40;;;;;;;5.30;1.55;;;;;;;16.66;100.00;99063.81;5035625;28;20053;-77
2023/08/03 03:12:06;;;;;;;3.40;1.40;;;;;;;16.65;100.00;99075.38;5036978;28;20343;-77
2023/08/03 03:14:31;;;;;;;6.60;1.58;;;;;;;16.64;100.00;99079.81;5036419;28;20039;-77
2023/08/03 03:16:57;;;;;;;1.98;0.90;;;;;;;16.63;100.00;99080.81;5037217;28;20033;-77
2023/08/03 03:19:22;;;;;;;4.72;1.63;;;;;;;16.63;100.00;99083.44;5036757;28;20041;-77
2023/08/03 03:21:48;;;;;;;3.47;1.25;;;;;;;16.63;100.00;99087.91;5036924;28;20056;-77
2023/08/03 03:24:13;;;;;;;6.65;1.52;;;;;;;16.61;100.00;99088.06;5037189;28;20037;-77
2023/08/03 03:26:39;;;;;;;3.88;1.30;;;;;;;16.60;100.00;99096.13;5036845;28;20379;-77
2023/08/03 03:29:04;;;;;;;3.78;1.45;;;;;;;16.61;100.00;99095.97;5036988;28;20060;-77
2023/08/03 03:31:29;;;;;;;6.18;1.25;;;;;;;16.60;100.00;99102.22;5036600;28;20092;-77
2023/08/03 03:33:55;;;;;;;8.43;1.42;;;;;;;16.60;100.00;99104.88;5036760;28;20419;-77
2023/08/03 03:36:20;;;;;;;6.70;1.40;;;;;;;16.59;100.00;99105.00;5036236;28;20099;-77
2023/08/03 03:38:45;;;;;;;3.10;1.00;;;;;;;16.59;100.00;99107.66;5036488;28;20116;-77
2023/08/03 03:41:11;;;;;;;3.10;1.15;;;;;;;16.57;100.00;99110.47;5036505;28;20030;-77
2023/08/03 03:43:36;;;;;;;3.13;1.15;;;;;;;16.57;100.00;99112.25;5036011;28;20134;-77
2023/08/03 03:46:02;;;;;;;4.07;1.40;;;;;;;16.56;100.00;99114.06;5036799;28;20033;-77
2023/08/03 03:48:28;;;;;;;11.10;1.30;;;;;;;16.56;100.00;99114.06;5035879;28;20026;-77
2023/08/03 03:50:54;;;;;;;6.70;1.45;;;;;;;16.55;100.00;99127.41;5036156;28;20059;-77
2023/08/03 03:53:19;;;;;;;4.93;1.60;;;;;;;16.55;100.00;99133.53;5035793;28;20061;-77
2023/08/03 03:55:45;;;;;;;5.38;1.35;;;;;;;16.55;100.00;99130.88;5036026;28;20309;-77
2023/08/03 03:58:10;;;;;;;4.50;1.13;;;;;;;16.53;100.00;99130.19;5036550;28;20037;-77
2023/08/03 04:00:40;;;;;;;6.82;1.40;;;;;;;16.53;100.00;99140.78;5035922;28;20291;-77
2023/08/03 04:03:06;;;;;;;2.75;1.33;;;;;;;16.52;100.00;99147.06;5018464;28;20061;-77
2023/08/03 04:05:31;;;;;;;3.80;1.50;;;;;;;16.53;100.00;99153.97;5035797;28;20053;-77
2023/08/03 04:07:57;;;;;;;3.70;1.45;;;;;;;16.52;100.00;99154.97;5035937;28;20099;-77
2023/08/03 04:10:22;;;;;;;4.00;1.58;;;;;;;16.51;100.00;99155.94;5035296;28;20079;-77
2023/08/03 04:12:47;;;;;;;8.27;1.73;;;;;;;16.50;100.00;99167.50;5036145;28;20033;-77
2023/08/03 04:15:13;;;;;;;9.05;1.92;;;;;;;16.50;100.00;99167.50;5036146;28;20428;-77
2023/08/03 04:17:38;;;;;;;8.32;2.40;;;;;;;16.49;100.00;99169.28;5035515;28;20417;-77
2023/08/03 04:20:05;;;;;;;8.30;2.60;;;;;;;16.48;100.00;99170.28;5035993;28;20029;-77
2023/08/03 04:22:30;;;;;;;15.95;2.78;;;;;;;16.48;100.00;99180.00;5035361;28;20033;-77
2023/08/03 04:24:56;;;;;;;10.18;2.30;;;;;;;16.48;100.00;99180.84;5035810;28;20228;-77
2023/08/03 04:27:21;;;;;;;10.18;2.45;;;;;;;16.48;100.00;99185.28;5035491;28;20107;-77
2023/08/03 04:29:46;;;;;;;8.63;2.00;;;;;;;16.47;100.00;99194.19;5018039;28;20071;-77
2023/08/03 04:32:12;;;;;;;14.10;2.88;;;;;;;16.47;100.00;99188.91;5035631;28;20048;-77
2023/08/03 04:34:37;;;;;;;18.42;3.10;;;;;;;16.46;100.00;99200.44;5035030;28;20104;-77
2023/08/03 04:37:03;;;;;;;8.02;2.58;;;;;;;16.45;100.00;99206.72;5035525;28;20069;-77
2023/08/03 04:39:28;;;;;;;8.38;2.60;;;;;;;16.44;100.00;99207.66;5034782;28;20424;-77
2023/08/03 04:41:53;;;;;;;9.43;2.08;;;;;;;16.43;100.00;99212.13;5035670;28;20060;-77
2023/08/03 04:44:19;;;;;;;6.28;2.40;;;;;;;16.43;100.00;99216.59;5035300;28;20025;-77
2023/08/03 04:46:44;;;;;;;5.70;1.73;;;;;;;16.42;100.00;99220.19;5035711;28;20087;-77
2023/08/03 04:49:12;;;;;;;6.35;2.10;;;;;;;16.40;100.00;99214.22;5035781;28;20040;-77
2023/08/03 04:51:37;;;;;;;7.20;2.00;;;;;;;16.39;100.00;99218.69;5017183;28;20022;-77
2023/08/03 04:54:03;;;;;;;7.45;1.80;;;;;;;16.39;100.00;99220.47;5035326;28;20370;-77
2023/08/03 04:56:28;;;;;;;5.03;1.80;;;;;;;16.38;100.00;99216.16;5034744;28;20087;-77
2023/08/03 04:58:53;;;;;;;9.25;2.30;;;;;;;16.38;100.00;99222.28;5034969;28;20232;-77
2023/08/03 05:01:19;;;;;;;9.00;1.92;;;;;;;16.37;100.00;99230.34;5034828;28;20037;-77
2023/08/03 05:03:44;;;;;;;7.32;1.65;;;;;;;16.37;100.00;99230.34;5035399;28;20097;-77
2023/08/03 05:06:10;;;;;;;3.33;1.42;;;;;;;16.36;100.00;99233.97;5035339;28;20029;-77
2023/08/03 05:08:35;;;;;;;6.72;2.00;;;;;;;16.36;100.00;99239.25;5034581;28;20087;-77
2023/08/03 05:11:00;;;;;;;5.72;1.65;;;;;;;16.35;100.00;99242.84;5035053;28;20044;-77
2023/08/03 05:13:26;;;;;;;9.90;2.47;;;;;;;16.36;100.00;99239.25;5034614;28;20037;-77
2023/08/03 05:15:51;;;;;;;5.70;1.60;;;;;;;16.34;100.00;99236.75;5035204;28;20033;-77
2023/08/03 05:18:16;;;;;;;9.13;2.42;;;;;;;16.34;100.00;99239.38;5035109;28;20110;-77
2023/08/03 05:20:42;;;;;;;10.35;1.95;;;;;;;16.35;100.00;99240.22;5035006;28;20041;-77
2023/08/03 05:23:09;;;;;;;5.03;1.70;;;;;;;16.35;100.00;99248.13;5034954;28;20037;-77
2023/08/03 05:25:34;;;;;;;6.57;2.00;;;;;;;16.34;100.00;99244.66;5034459;28;20041;-77
2023/08/03 05:28:01;;;;;;;8.63;1.90;;;;;;;16.32;100.00;99246.63;5035185;28;20045;-77
2023/08/03 05:30:26;;;;;;;6.28;1.73;;;;;;;16.32;100.00;99246.63;5034762;28;20088;-77
2023/08/03 05:32:53;;;;;;;6.50;1.60;;;;;;;16.31;100.00;99251.03;5035837;28;20065;-77
2023/08/03 05:35:18;;;;;;;5.50;1.60;;;;;;;16.32;100.00;99249.25;5038463;28;20037;-77
2023/08/03 05:37:44;;;;;;;3.65;1.33;;;;;;;16.33;100.00;99250.09;5038420;28;20045;-77
2023/08/03 05:40:10;;;;;;;9.38;1.92;;;;;;;16.33;100.00;99250.09;5020741;28;20025;-77
2023/08/03 05:42:41;;;;;;;7.38;1.63;;;;;;;16.31;100.00;99256.31;5038612;28;20064;-77
2023/08/03 05:45:35;;;;;;;9.55;1.85;;;;;;;16.30;100.00;99257.31;5038691;28;20239;-77
2023/08/03 05:48:01;;;;;;;8.82;2.40;;;;;;;16.31;100.00;99258.16;5039187;28;20438;-76
2023/08/03 05:50:26;;;;;;;4.55;1.60;;;;;;;16.29;100.00;99274.13;5037989;28;20037;-77
2023/08/03 05:52:52;;;;;;;5.95;1.15;;;;;;;16.28;100.00;99275.13;5038327;28;20045;-77
2023/08/03 05:55:18;;;;;;;7.18;2.05;;;;;;;16.29;100.00;99268.00;5038154;28;20039;-77
2023/08/03 05:57:43;;;;;;;6.75;1.88;;;;;;;16.28;100.00;99285.69;5038117;28;20358;-77
2023/08/03 06:00:16;;;;;;;10.50;2.22;;;;;;;16.29;100.00;99281.22;5038251;28;20052;-77
2023/08/03 06:02:43;;;;;;;10.80;2.45;;;;;;;16.29;100.00;99274.13;5038232;28;20035;-77
2023/08/03 06:05:37;;;;;;;8.00;1.88;;;;;;;16.31;100.00;99285.38;5020821;28;20033;-77
2023/08/03 06:08:12;;;;;;;12.85;2.40;;;;;;;16.30;100.00;99286.38;5038118;28;20336;-77
2023/08/03 06:10:38;;;;;;;12.75;3.40;;;;;;;16.30;100.00;99307.50;5020165;28;20084;-77
2023/08/03 06:13:04;;;;;;;9.85;2.38;;;;;;;16.30;100.00;99289.00;5037946;28;20244;-77
2023/08/03 06:15:30;;;;;;;4.93;1.70;;;;;;;16.30;100.00;99299.59;5037458;28;20032;-77
2023/08/03 06:18:24;;;;;;;11.98;2.72;;;;;;;16.32;100.00;99296.81;5037838;28;20044;-76
2023/08/03 06:20:51;;;;;;;5.82;2.20;;;;;;;16.33;100.00;99309.03;5024809;28;20037;-76
2023/08/03 06:23:22;;;;;;;10.95;2.40;;;;;;;16.33;100.00;99313.50;5037440;28;20080;-76
2023/08/03 06:25:49;;;;;;;6.43;2.00;;;;;;;16.34;100.00;99308.06;5037725;28;20244;-76
2023/08/03 06:28:17;;;;;;;13.20;3.10;;;;;;;16.35;100.00;99317.66;5019840;28;20029;-76
2023/08/03 06:30:44;;;;;;;17.00;3.05;;;;;;;16.35;100.00;99322.94;5037546;28;20337;-77
2023/08/03 06:33:12;;;;;;;12.77;2.58;;;;;;;16.36;100.00;99332.53;5037433;28;20098;-76
2023/08/03 06:35:39;;;;;;;8.57;2.80;;;;;;;16.38;100.00;99341.16;5019227;28;20044;-76
2023/08/03 06:38:08;;;;;;;13.02;3.35;;;;;;;16.38;100.00;99349.09;5037649;28;20068;-76
2023/08/03 06:40:34;;;;;;;3.97;2.13;;;;;;;16.39;100.00;99358.69;5036799;28;20045;-77
2023/08/03 06:43:03;;;;;;;11.13;2.85;;;;;;;16.41;100.00;99363.81;5037613;28;20267;-76
2023/08/03 06:45:33;;;;;;;10.75;3.13;;;;;;;16.41;100.00;99375.25;5035597;28;20215;-76
2023/08/03 06:47:59;;;;;;;13.73;2.65;;;;;;;16.43;100.00;99380.41;5037424;28;20033;-76
2023/08/03 06:50:26;;;;;;;13.02;2.35;;;;;;;16.43;100.00;99386.50;5036986;28;20082;-76
2023/08/03 06:52:52;;;;;;;7.03;2.25;;;;;;;16.45;100.00;99404.88;5037109;28;20095;-77
2023/08/03 06:55:18;;;;;;;4.25;1.70;;;;;;;16.46;100.00;99411.81;5036968;28;20088;-77
2023/08/03 06:57:44;;;;;;;5.93;2.40;;;;;;;16.46;100.00;99420.59;5037198;28;20044;-77
2023/08/03 07:00:10;;;;;;;4.57;1.83;;;;;;;16.48;100.00;99425.72;5037482;28;20076;-77
2023/08/03 07:02:36;;;;;;;5.05;1.63;;;;;;;16.49;100.00;99428.25;5036868;28;20037;-77
2023/08/03 07:05:01;;;;;;;6.03;2.00;;;;;;;16.49;100.00;99438.81;5036983;28;20029;-77
2023/08/03 07:07:27;;;;;;;13.38;2.53;;;;;;;16.50;100.00;99437.84;5036603;28;20051;-77
2023/08/03 07:09:53;;;;;;;11.60;3.13;;;;;;;16.51;100.00;99444.78;5036703;28;20343;-77
2023/08/03 07:12:19;;;;;;;12.00;2.30;;;;;;;16.53;100.00;99451.75;5018618;28;20037;-77
2023/08/03 07:14:44;;;;;;;4.28;2.00;;;;;;;16.54;100.00;99472.78;5036576;28;20037;-77
2023/08/03 07:17:10;;;;;;;6.57;1.70;;;;;;;16.55;100.00;99474.44;5037085;28;20043;-77
2023/08/03 07:19:35;;;;;;;9.65;2.15;;;;;;;16.57;100.00;99484.88;5036113;28;20399;-77
2023/08/03 07:22:00;;;;;;;5.88;2.00;;;;;;;16.58;100.00;99495.31;5036747;28;20139;-77
2023/08/03 07:24:28;;;;;;;5.47;1.80;;;;;;;16.59;100.00;99504.06;5035697;28;20033;-77
2023/08/03 07:26:53;;;;;;;8.82;2.08;;;;;;;16.59;100.00;99496.13;5036756;28;20291;-77
2023/08/03 07:29:19;;;;;;;9.07;2.10;;;;;;;16.60;100.00;99517.16;5036191;28;20029;-77
2023/08/03 07:31:44;;;;;;;6.00;1.90;;;;;;;16.59;100.00;99519.94;5036674;28;20753;-77
2023/08/03 07:34:10;;;;;;;6.20;1.83;;;;;;;16.60;100.00;99517.16;5036471;28;20037;-77
2023/08/03 07:36:35;;;;;;;9.60;2.63;;;;;;;16.62;100.00;99530.25;5036261;28;20032;-76
2023/08/03 07:39:01;;;;;;;5.38;1.55;;;;;;;16.64;100.00;99533.59;5036232;28;20228;-76
2023/08/03 07:41:26;;;;;;;5.45;1.45;;;;;;;16.65;100.00;99543.19;5035569;28;20044;-76
2023/08/03 07:43:52;;;;;;;9.07;1.83;;;;;;;16.65;100.00;99559.06;5036352;28;20033;-76
2023/08/03 07:46:17;;;;;;;6.50;1.88;;;;;;;16.67;100.00;99559.75;5035866;28;20105;-77
2023/08/03 07:48:42;;;;;;;7.88;2.10;;;;;;;16.67;100.00;99565.03;5036282;28;20325;-76
2023/08/03 07:51:12;;;;;;;3.72;2.00;;;;;;;16.68;100.00;99572.00;5036196;28;20048;-76
2023/08/03 07:53:37;;;;;;;5.22;1.88;;;;;;;16.68;100.00;99575.50;5035344;28;20044;-76
2023/08/03 07:56:03;;;;;;;4.90;1.90;;;;;;;16.70;100.00;99585.94;5036208;28;20033;-76
2023/08/03 07:58:28;;;;;;;6.53;2.15;;;;;;;16.71;100.00;99595.53;5035280;28;20045;-76
2023/08/03 08:01:04;;;;;;;13.63;2.75;;;;;;;16.73;100.00;99600.69;5036027;28;20034;-76
2023/08/03 08:03:29;;;;;;;5.93;2.15;;;;;;;16.73;100.00;99614.72;5035296;28;20493;-76
2023/08/03 08:06:06;;;;;;;8.38;2.63;;;;;;;16.77;100.00;99617.94;5035871;28;20049;-76
2023/08/03 08:08:31;;;;;;;8.65;2.40;;;;;;;16.79;100.00;99621.28;5033596;28;20152;-76
2023/08/03 08:10:57;;;;;;;6.45;2.53;;;;;;;16.80;100.00;99622.97;5035528;28;20044;-76
2023/08/03 08:13:22;;;;;;;7.75;2.50;;;;;;;16.81;100.00;99630.78;5035771;28;20043;-77
2023/08/03 08:15:48;;;;;;;8.00;2.65;;;;;;;16.83;100.00;99641.28;5035999;28;20041;-77
2023/08/03 08:18:13;;;;;;;12.90;2.65;;;;;;;16.82;100.00;99645.66;5035778;28;20040;-77
2023/08/03 08:20:39;;;;;;;4.55;2.10;;;;;;;16.84;100.00;99653.50;5035253;28;20375;-77
2023/08/03 08:23:05;;;;;;;7.03;2.30;;;;;;;16.85;100.00;99655.19;5035498;28;20040;-77
2023/08/03 08:25:34;;;;;;;11.75;2.58;;;;;;;16.87;100.00;99658.53;5035081;28;20037;-77
2023/08/03 08:27:59;;;;;;;3.47;2.10;;;;;;;16.88;100.00;99669.00;5035576;28;20067;-76
2023/08/03 08:30:25;;;;;;;5.30;2.38;;;;;;;16.90;100.00;99666.22;5035081;28;20375;-76
2023/08/03 08:32:50;;;;;;;10.30;2.50;;;;;;;16.93;100.00;99673.03;5035700;28;20037;-77
2023/08/03 08:35:16;;;;;;;9.10;3.25;;;;;;;16.94;100.00;99678.19;5035327;28;20044;-77
2023/08/03 08:37:41;;;;;;;9.02;2.67;;;;;;;16.97;100.00;99682.38;5034947;28;20080;-76
2023/08/03 08:40:12;;;;;;;4.28;2.15;;;;;;;17.00;100.00;99688.25;5035225;28;20302;-76
2023/08/03 08:42:38;;;;;;;7.32;2.72;;;;;;;17.01;100.00;99702.31;5034913;28;20097;-76
2023/08/03 08:45:05;;;;;;;7.95;3.13;;;;;;;17.04;100.00;99707.31;5035417;28;20041;-77
2023/08/03 08:47:31;;;;;;;8.57;2.83;;;;;;;17.04;100.00;99717.91;5034841;28;20025;-78
2023/08/03 08:49:56;;;;;;;6.63;2.50;;;;;;;17.05;100.00;99711.66;5035470;28;20080;-77
2023/08/03 08:52:23;;;;;;;9.07;2.13;;;;;;;17.04;100.00;99713.44;5034931;28;20158;-77
2023/08/03 08:54:48;;;;;;;5.43;2.65;;;;;;;17.04;100.00;99721.38;5034815;28;20029;-77
2023/08/03 08:57:15;;;;;;;13.88;3.85;;;;;;;17.04;100.00;99726.66;5035209;28;20048;-77
2023/08/03 09:00:03;;;;;;;9.25;2.70;;;;;;;17.04;100.00;99723.19;5034745;28;20052;-77
2023/08/03 09:02:29;;;;;;;10.13;3.10;;;;;;;17.04;100.00;99734.59;5034512;28;20037;-77
2023/08/03 09:04:54;;;;;;;12.43;3.50;;;;;;;17.05;100.00;99741.59;5035107;28;20300;-77
2023/08/03 09:07:20;;;;;;;14.20;3.15;;;;;;;17.06;100.00;99747.69;5034731;28;20212;-77
2023/08/03 09:09:45;;;;;;;17.65;2.85;;;;;;;17.10;100.00;99750.94;5039025;28;20144;-77
2023/08/03 09:12:24;;;;;;;10.10;3.13;;;;;;;17.12;100.00;99751.63;5038972;28;20044;-76
2023/08/03 09:14:51;;;;;;;12.55;3.15;;;;;;;17.13;100.00;99754.16;5038901;28;20389;-76
2023/08/03 09:17:19;;;;;;;12.65;3.17;;;;;;;17.15;100.00;99769.91;5038875;28;20363;-76
2023/08/03 09:19:45;;;;;;;13.48;3.22;;;;;;;17.17;100.00;99765.31;5039297;28;20711;-76
2023/08/03 09:22:11;;;;;;;10.10;2.92;;;;;;;17.18;100.00;99765.19;5039280;28;20029;-76
2023/08/03 09:24:37;;;;;;;8.45;2.78;;;;;;;17.21;100.00;99769.38;5020129;28;20320;-76
2023/08/03 09:27:03;;;;;;;12.75;2.85;;;;;;;17.23;100.00;99772.75;5020715;28;20052;-76
2023/08/03 09:29:31;;;;;;;10.95;2.65;;;;;;;17.26;100.00;99780.41;5038086;28;20086;-76
2023/08/03 09:32:03;;;;;;;14.43;2.92;;;;;;;17.30;100.00;99788.91;5038928;28;20030;-76
2023/08/03 09:34:42;;;;;;;16.52;3.63;;;;;;;17.33;100.00;99804.53;5038051;28;20037;-77
2023/08/03 09:37:08;;;;;;;13.35;2.92;;;;;;;17.32;100.00;99801.06;5038849;28;20071;-77
2023/08/03 09:39:34;;;;;;;13.73;2.65;;;;;;;17.31;100.00;99801.19;5038001;28;20071;-76
2023/08/03 09:42:05;;;;;;;7.13;2.22;;;;;;;17.31;100.00;99823.19;5038494;28;20045;-76
2023/08/03 09:44:35;;;;;;;9.85;2.50;;;;;;;17.31;100.00;99835.59;5037942;28;20037;-76
2023/08/03 09:47:01;;;;;;;6.03;1.70;;;;;;;17.32;100.00;99843.41;5038775;28;20033;-76
2023/08/03 09:49:27;;;;;;;6.10;1.42;;;;;;;17.29;100.00;99848.94;5037960;28;20556;-76
2023/08/03 09:51:57;;;;;;;5.72;1.27;;;;;;;17.30;100.00;99850.63;5038544;28;20048;-76
2023/08/03 09:54:57;;;;;;;6.82;1.38;;;;;;;17.30;100.00;99855.06;5037736;28;20406;-76
2023/08/03 09:57:24;;;;;;;8.57;1.63;;;;;;;17.28;100.00;99865.78;5034733;28;20053;-76
2023/08/03 09:59:55;;;;;;;8.40;1.60;;;;;;;17.25;100.00;99876.63;5037994;28;20064;-76
2023/08/03 10:02:23;;;;;;;7.75;1.50;;;;;;;17.23;100.00;99889.16;5038104;28;20029;-76
2023/08/03 10:04:55;;;;;;;7.53;1.88;;;;;;;17.22;100.00;99892.75;5037931;28;20120;-77
2023/08/03 10:07:25;;;;;;;5.45;1.60;;;;;;;17.21;100.00;99893.75;5037819;28;20056;-76
2023/08/03 10:09:56;;;;;;;6.05;1.23;;;;;;;17.19;100.00;99907.09;5019748;28;20034;-77
2023/08/03 10:12:27;;;;;;;7.93;1.98;;;;;;;17.18;100.00;99923.09;5037853;28;20379;-77
2023/08/03 10:14:53;;;;;;;6.15;1.65;;;;;;;17.17;100.00;99929.34;5038017;28;20033;-76
2023/08/03 10:17:19;;;;;;;7.07;2.25;;;;;;;17.16;100.00;99940.91;5019579;28;20108;-77
2023/08/03 10:19:45;;;;;;;8.02;1.98;;;;;;;17.15;100.00;99952.44;5019423;28;20033;-77
2023/08/03 10:22:11;;;;;;;6.05;1.75;;;;;;;17.12;100.00;99950.91;5037843;28;20096;-77
2023/08/03 10:24:36;;;;;;;6.85;1.80;;;;;;;17.12;100.00;99955.31;5037022;28;20583;-77
2023/08/03 10:27:31;;;;;;;7.45;1.90;;;;;;;17.12;100.00;99965.91;5037855;28;20037;-77
2023/08/03 10:29:57;;;;;;;7.45;1.67;;;;;;;17.11;100.00;99975.66;5020603;28;20056;-77
2023/08/03 10:32:28;;;;;;;4.60;1.67;;;;;;;17.09;100.00;99988.16;5037492;28;20033;-77
2023/08/03 10:34:58;;;;;;;4.93;1.75;;;;;;;17.07;100.00;99998.03;5037699;28;20044;-77
2023/08/03 10:37:25;;;;;;;6.60;2.17;;;;;;;17.06;100.00;100009.56;5037124;28;20037;-77
2023/08/03 10:39:53;;;;;;;2.60;1.05;;;;;;;17.04;100.00;100008.84;5037519;28;20083;-77
2023/08/03 10:42:32;;;;;;;2.08;1.00;;;;;;;17.03;100.00;100020.41;5037187;28;20034;-77
2023/08/03 10:45:23;;;;;;;5.32;1.48;;;;;;;16.99;100.00;100029.53;5037615;28;20038;-77
2023/08/03 10:47:49;;;;;;;6.82;1.98;;;;;;;16.92;100.00;100037.16;5037465;28;20352;-77
2023/08/03 10:50:14;;;;;;;6.70;2.20;;;;;;;16.87;100.00;100040.16;5037418;28;20036;-77
2023/08/03 10:52:40;;;;;;;8.20;2.72;;;;;;;16.82;100.00;100044.09;5018761;28;20029;-77
2023/08/03 10:55:26;;;;;;;9.73;2.20;;;;;;;16.76;100.00;100056.00;5037428;28;20167;-77
2023/08/03 10:57:55;;;;;;;6.93;1.80;;;;;;;16.72;100.00;100065.16;5037793;28;20367;-77
2023/08/03 11:00:21;;;;;;;4.13;1.45;;;;;;;16.72;100.00;100065.16;5036667;28;20096;-77
2023/08/03 11:02:47;;;;;;;4.72;1.60;;;;;;;16.70;100.00;100067.91;5036992;28;20339;-77
2023/08/03 11:05:12;;;;;;;6.90;2.20;;;;;;;16.71;100.00;100071.38;5037100;28;20117;-77
2023/08/03 11:07:38;;;;;;;7.88;2.42;;;;;;;16.70;100.00;100077.66;5036663;28;20267;-77
2023/08/03 11:10:11;;;;;;;8.68;2.53;;;;;;;16.68;100.00;100077.75;5036647;28;20056;-77
2023/08/03 11:12:38;;;;;;;10.48;2.60;;;;;;;16.68;100.00;100084.81;5036767;28;20273;-77
2023/08/03 11:15:05;;;;;;;16.42;2.78;;;;;;;16.66;100.00;100095.56;5037154;28;20037;-77
2023/08/03 11:17:36;;;;;;;14.95;3.25;;;;;;;16.65;100.00;100099.13;5036423;28;20097;-77
2023/08/03 11:20:03;;;;;;;13.57;3.42;;;;;;;16.66;100.00;100110.53;5037023;28;20033;-77
2023/08/03 11:22:30;;;;;;;10.93;3.25;;;;;;;16.65;100.00;100112.34;5036788;28;20025;-77
2023/08/03 11:24:57;;;;;;;19.67;4.07;;;;;;;16.65;100.00;100117.66;5037304;28;20053;-77
2023/08/03 11:27:23;;;;;;;15.20;3.92;;;;;;;16.64;100.00;100123.03;5018607;28;20029;-77